Time;durP1;ratioP1;P1;durP2;ratioP2;P2;SDS_P1;SDS_P2;PMS_P1;PMS_P2;Temp;Humidity;BMP_temperature;BMP_pressure;BME280_temperature;BME280_humidity;BME280_pressure;Samples;Min_cycle;Max_cycle;Signal;HPM_P1;HPM_P2
2023/08/15 00:00:12;;;;;;;6.55;2.28;;;;;;;17.93;100.00;101326.84;5093277;28;20043;-82
2023/08/15 00:02:38;;;;;;;10.68;2.50;;;;;;;17.89;100.00;101330.03;5092216;28;20105;-83
2023/08/15 00:05:04;;;;;;;12.45;2.58;;;;;;;17.84;100.00;101329.72;5092530;28;20032;-83
2023/08/15 00:07:29;;;;;;;4.55;1.90;;;;;;;17.81;100.00;101333.63;5092197;28;20059;-83
2023/08/15 00:09:54;;;;;;;11.18;2.78;;;;;;;17.79;100.00;101325.72;5092086;28;20028;-82
2023/08/15 00:12:20;;;;;;;10.73;2.78;;;;;;;17.82;100.00;101334.44;5092113;28;20071;-81
2023/08/15 00:14:45;;;;;;;8.77;2.35;;;;;;;17.85;100.00;101331.41;5092170;28;20036;-82
2023/08/15 00:17:11;;;;;;;9.90;2.22;;;;;;;17.90;100.00;101320.97;5074727;28;20060;-81
2023/08/15 00:19:37;;;;;;;8.07;1.95;;;;;;;17.89;100.00;101316.59;5093215;28;20034;-82
2023/08/15 00:22:02;;;;;;;9.38;2.40;;;;;;;17.84;100.00;101317.13;5092235;28;20088;-83
2023/08/15 00:24:28;;;;;;;7.47;2.80;;;;;;;17.78;100.00;101325.91;5093000;28;20420;-82
2023/08/15 00:26:53;;;;;;;12.35;2.60;;;;;;;17.69;100.00;101321.53;5074235;28;20032;-82
2023/08/15 00:29:19;;;;;;;10.73;2.65;;;;;;;17.61;100.00;101334.00;5073893;28;20063;-81
2023/08/15 00:31:44;;;;;;;8.30;2.65;;;;;;;17.53;100.00;101327.84;5092349;28;20032;-83
2023/08/15 00:34:09;;;;;;;9.38;2.72;;;;;;;17.45;100.00;101334.06;5073910;28;20135;-83
2023/08/15 00:36:35;;;;;;;9.70;2.55;;;;;;;17.35;100.00;101331.56;5074024;28;20111;-83
2023/08/15 00:39:02;;;;;;;11.63;3.00;;;;;;;17.25;100.00;101336.31;5092202;28;20380;-83
2023/08/15 00:41:30;;;;;;;10.68;2.38;;;;;;;17.16;100.00;101335.47;5092169;28;20059;-83
2023/08/15 00:43:58;;;;;;;7.70;2.47;;;;;;;17.09;100.00;101329.94;5092590;28;20059;-83
2023/08/15 00:46:24;;;;;;;9.63;2.60;;;;;;;17.05;100.00;101331.28;5073792;28;20032;-81
2023/08/15 00:48:50;;;;;;;10.98;2.75;;;;;;;17.00;100.00;101327.44;5091767;28;20131;-81
2023/08/15 00:51:16;;;;;;;9.75;3.15;;;;;;;16.95;100.00;101322.56;5077283;28;20069;-82
2023/08/15 00:53:43;;;;;;;7.95;2.28;;;;;;;16.91;100.00;101338.19;5096067;28;20181;-82
2023/08/15 00:56:09;;;;;;;10.45;2.38;;;;;;;16.89;100.00;101334.81;5095909;28;20507;-82
2023/08/15 00:58:35;;;;;;;7.30;2.40;;;;;;;16.88;100.00;101338.53;5077742;28;20332;-83
2023/08/15 01:01:02;;;;;;;10.80;2.55;;;;;;;16.90;100.00;101349.13;5095747;28;20028;-81
2023/08/15 01:03:28;;;;;;;11.63;2.28;;;;;;;16.94;100.00;101349.59;5095554;28;20109;-82
2023/08/15 01:05:54;;;;;;;11.07;2.58;;;;;;;16.97;100.00;101344.72;5095556;28;20043;-82
2023/08/15 01:08:19;;;;;;;11.95;2.42;;;;;;;17.02;100.00;101353.13;5095023;28;20043;-81
2023/08/15 01:10:45;;;;;;;8.93;2.33;;;;;;;17.08;100.00;101348.94;5095630;28;20036;-82
2023/08/15 01:13:19;;;;;;;8.88;2.05;;;;;;;17.12;100.00;101344.88;5095599;28;20428;-82
2023/08/15 01:15:51;;;;;;;12.40;2.70;;;;;;;17.16;100.00;101338.16;5095619;28;20035;-83
2023/08/15 01:18:19;;;;;;;10.43;2.30;;;;;;;17.22;100.00;101325.88;5096990;28;20063;-83
2023/08/15 01:20:46;;;;;;;15.30;2.70;;;;;;;17.25;100.00;101323.69;5077616;28;20204;-83
2023/08/15 01:23:14;;;;;;;11.50;2.78;;;;;;;17.26;100.00;101336.13;5096671;28;20035;-83
2023/08/15 01:25:41;;;;;;;13.85;2.63;;;;;;;17.23;100.00;101322.19;5077714;28;20036;-82
2023/08/15 01:28:12;;;;;;;8.98;2.70;;;;;;;17.17;100.00;101322.88;5077563;28;20465;-83
2023/08/15 01:30:43;;;;;;;9.75;2.55;;;;;;;17.10;100.00;101323.53;5077311;28;20197;-83
2023/08/15 01:33:38;;;;;;;11.85;2.78;;;;;;;17.00;100.00;101316.66;5096167;28;20028;-83
2023/08/15 01:36:13;;;;;;;9.43;2.70;;;;;;;16.94;100.00;101322.72;5087756;28;20538;-83
2023/08/15 01:38:42;;;;;;;10.55;2.28;;;;;;;16.89;100.00;101332.13;5095269;28;20103;-82
2023/08/15 01:41:09;;;;;;;10.88;2.53;;;;;;;16.88;100.00;101332.31;5095093;28;20031;-83
2023/08/15 01:43:36;;;;;;;12.70;3.30;;;;;;;16.87;100.00;101330.66;5094957;28;20123;-83
2023/08/15 01:46:03;;;;;;;15.27;3.20;;;;;;;16.82;100.00;101328.41;5095124;28;20028;-83
2023/08/15 01:48:28;;;;;;;9.50;3.03;;;;;;;16.77;100.00;101328.06;5094984;28;20062;-83
2023/08/15 01:50:54;;;;;;;10.07;3.10;;;;;;;16.72;100.00;101339.34;5094912;28;20045;-83
2023/08/15 01:53:19;;;;;;;10.30;2.47;;;;;;;16.68;100.00;101343.34;5094774;28;20047;-82
2023/08/15 01:55:45;;;;;;;8.77;2.55;;;;;;;16.65;100.00;101337.50;5095275;28;20028;-83
2023/08/15 01:58:10;;;;;;;9.00;2.50;;;;;;;16.65;100.00;101343.69;5095513;28;20410;-82
2023/08/15 02:00:35;;;;;;;12.48;3.10;;;;;;;16.64;100.00;101342.00;5077270;28;20042;-82
2023/08/15 02:03:01;;;;;;;13.88;2.70;;;;;;;16.64;100.00;101352.75;5076872;28;20035;-83
2023/08/15 02:05:26;;;;;;;10.32;2.70;;;;;;;16.65;100.00;101364.34;5076508;28;20039;-82
2023/08/15 02:07:51;;;;;;;9.65;2.65;;;;;;;16.65;100.00;101361.66;5094994;28;20024;-83
2023/08/15 02:10:17;;;;;;;13.68;3.03;;;;;;;16.65;100.00;101359.81;5076761;28;20108;-83
2023/08/15 02:12:42;;;;;;;12.65;3.08;;;;;;;16.66;100.00;101364.19;5094567;28;20024;-83
2023/08/15 02:15:08;;;;;;;16.23;3.20;;;;;;;16.66;100.00;101355.25;5094703;28;20039;-83
2023/08/15 02:17:33;;;;;;;9.40;2.40;;;;;;;16.67;100.00;101360.47;5094375;28;20028;-83
2023/08/15 02:19:58;;;;;;;15.07;3.20;;;;;;;16.65;100.00;101354.44;5095384;28;20043;-83
2023/08/15 02:22:24;;;;;;;14.18;2.85;;;;;;;16.60;100.00;101359.47;5076927;28;20024;-82
2023/08/15 02:24:49;;;;;;;13.30;2.97;;;;;;;16.56;100.00;101358.97;5095104;28;20456;-82
2023/08/15 02:27:15;;;;;;;10.68;2.60;;;;;;;16.52;100.00;101367.50;5094692;28;20349;-83
2023/08/15 02:29:40;;;;;;;12.77;3.05;;;;;;;16.44;100.00;101362.97;5094105;28;20024;-82
2023/08/15 02:32:06;;;;;;;11.73;2.92;;;;;;;16.42;100.00;101362.31;5094379;28;20500;-82
2023/08/15 02:34:31;;;;;;;13.50;2.72;;;;;;;16.43;100.00;101365.81;5093301;28;20028;-82
2023/08/15 02:36:57;;;;;;;13.48;2.70;;;;;;;16.41;100.00;101363.31;5094450;28;20093;-83
2023/08/15 02:39:22;;;;;;;10.27;2.67;;;;;;;16.38;100.00;101369.84;5076632;28;20115;-83
2023/08/15 02:41:48;;;;;;;10.75;2.70;;;;;;;16.35;100.00;101372.03;5094103;28;20058;-83
2023/08/15 02:44:13;;;;;;;11.85;2.40;;;;;;;16.40;100.00;101365.13;5093940;28;20460;-82
2023/08/15 02:46:39;;;;;;;8.32;2.10;;;;;;;16.38;100.00;101366.31;5075971;28;20423;-82
2023/08/15 02:49:05;;;;;;;9.57;2.55;;;;;;;16.38;100.00;101377.06;5094088;28;20077;-82
2023/08/15 02:51:30;;;;;;;11.45;2.17;;;;;;;16.34;100.00;101371.16;5094350;28;20372;-81
2023/08/15 02:53:56;;;;;;;8.07;2.33;;;;;;;16.31;100.00;101379.53;5075701;28;20024;-82
2023/08/15 02:56:21;;;;;;;9.70;2.58;;;;;;;16.31;100.00;101381.41;5094163;28;20024;-83
2023/08/15 02:58:47;;;;;;;4.43;2.00;;;;;;;16.30;100.00;101393.13;5093346;28;20111;-83
2023/08/15 03:01:12;;;;;;;8.15;2.55;;;;;;;16.26;100.00;101392.63;5093673;28;20467;-82
2023/08/15 03:03:38;;;;;;;10.13;2.80;;;;;;;16.20;100.00;101387.91;5093769;28;20032;-83
2023/08/15 03:06:03;;;;;;;6.30;2.15;;;;;;;16.14;100.00;101389.41;5094075;28;20032;-82
2023/08/15 03:08:30;;;;;;;5.38;1.90;;;;;;;16.12;100.00;101391.41;5093856;28;20491;-83
2023/08/15 03:10:55;;;;;;;11.70;2.42;;;;;;;16.09;100.00;101399.78;5075316;28;20028;-84
2023/08/15 03:13:21;;;;;;;9.85;2.30;;;;;;;16.10;100.00;101403.31;5092872;28;20430;-82
2023/08/15 03:15:56;;;;;;;5.30;1.95;;;;;;;16.11;100.00;101407.66;5075310;28;20036;-82
2023/08/15 03:18:22;;;;;;;8.65;2.55;;;;;;;16.10;100.00;101406.84;5093657;28;20071;-84
2023/08/15 03:21:02;;;;;;;12.40;3.00;;;;;;;16.11;100.00;101395.09;5075646;28;20471;-83
2023/08/15 03:23:27;;;;;;;12.23;2.95;;;;;;;16.11;100.00;101399.59;5075804;28;20357;-83
2023/08/15 03:26:03;;;;;;;7.50;2.60;;;;;;;16.12;100.00;101393.25;5076377;28;20129;-84
2023/08/15 03:28:28;;;;;;;6.70;2.20;;;;;;;16.13;100.00;101397.63;5095202;28;20145;-83
2023/08/15 03:30:54;;;;;;;7.60;2.47;;;;;;;16.12;100.00;101399.47;5093982;28;20410;-84
2023/08/15 03:33:19;;;;;;;9.32;2.60;;;;;;;16.14;100.00;101405.50;5093270;28;20032;-84
2023/08/15 03:35:50;;;;;;;11.18;2.50;;;;;;;16.19;100.00;101408.53;5075067;28;20024;-83
2023/08/15 03:38:20;;;;;;;12.27;2.60;;;;;;;16.22;100.00;101407.38;5093082;28;20028;-83
2023/08/15 03:40:47;;;;;;;11.18;3.10;;;;;;;16.23;100.00;101406.38;5093282;28;20278;-83
2023/08/15 03:43:13;;;;;;;9.93;2.80;;;;;;;16.27;100.00;101414.94;5092601;28;20484;-83
2023/08/15 03:45:39;;;;;;;10.52;2.88;;;;;;;16.28;100.00;101416.63;5092943;28;20040;-82
2023/08/15 03:48:06;;;;;;;11.07;3.20;;;;;;;16.27;100.00;101417.63;5092649;28;20093;-83
2023/08/15 03:50:38;;;;;;;9.88;3.17;;;;;;;16.26;100.00;101432.03;5092565;28;20093;-83
2023/08/15 03:53:04;;;;;;;10.27;3.53;;;;;;;16.26;100.00;101432.03;5092851;28;20024;-83
2023/08/15 03:55:30;;;;;;;11.63;4.18;;;;;;;16.26;100.00;101432.03;5092461;28;20028;-83
2023/08/15 03:57:56;;;;;;;9.00;3.50;;;;;;;16.26;100.00;101429.38;5092924;28;20538;-83
2023/08/15 04:00:22;;;;;;;16.85;4.97;;;;;;;16.24;100.00;101437.56;5092558;28;20064;-82
2023/08/15 04:02:48;;;;;;;14.15;4.60;;;;;;;16.25;100.00;101435.75;5092687;28;20028;-82
2023/08/15 04:05:14;;;;;;;16.17;4.05;;;;;;;16.25;100.00;101433.06;5092920;28;20360;-82
2023/08/15 04:07:40;;;;;;;13.68;4.32;;;;;;;16.28;100.00;101435.44;5092405;28;20396;-84
2023/08/15 04:10:06;;;;;;;12.63;4.43;;;;;;;16.33;100.00;101441.13;5092454;28;20503;-83
2023/08/15 04:12:33;;;;;;;13.77;4.40;;;;;;;16.35;100.00;101436.47;5092041;28;20489;-84
2023/08/15 04:14:59;;;;;;;11.70;4.07;;;;;;;16.36;100.00;101440.81;5092135;28;20028;-82
2023/08/15 04:17:25;;;;;;;15.00;5.05;;;;;;;16.36;100.00;101433.63;5092092;28;20060;-84
2023/08/15 04:19:53;;;;;;;10.00;4.07;;;;;;;16.35;100.00;101429.25;5092992;28;20036;-82
2023/08/15 04:22:19;;;;;;;15.57;4.22;;;;;;;16.35;100.00;101429.25;5074360;28;20048;-82
2023/08/15 04:24:44;;;;;;;14.32;4.03;;;;;;;16.33;100.00;101428.56;5092533;28;20032;-82
2023/08/15 04:27:10;;;;;;;15.80;4.65;;;;;;;16.33;100.00;101427.72;5092309;28;20024;-83
2023/08/15 04:29:35;;;;;;;19.15;4.40;;;;;;;16.30;100.00;101426.22;5092716;28;20032;-82
2023/08/15 04:32:01;;;;;;;15.68;4.43;;;;;;;16.29;100.00;101419.16;5092297;28;20363;-83
2023/08/15 04:34:26;;;;;;;20.27;4.65;;;;;;;16.29;100.00;101421.00;5092378;28;20036;-84
2023/08/15 04:36:51;;;;;;;18.80;4.55;;;;;;;16.27;100.00;101414.94;5092318;28;20036;-83
2023/08/15 04:39:23;;;;;;;15.07;4.22;;;;;;;16.28;100.00;101413.94;5092025;28;20043;-83
2023/08/15 04:41:49;;;;;;;15.98;3.95;;;;;;;16.27;100.00;101410.44;5092324;28;20032;-83
2023/08/15 04:44:14;;;;;;;21.40;4.47;;;;;;;16.26;100.00;101402.50;5091943;28;20028;-83
2023/08/15 04:46:40;;;;;;;18.35;4.68;;;;;;;16.25;100.00;101407.06;5092454;28;20165;-83
2023/08/15 04:49:05;;;;;;;19.30;4.72;;;;;;;16.23;100.00;101414.44;5074846;28;20082;-83
2023/08/15 04:51:31;;;;;;;17.05;4.35;;;;;;;16.21;100.00;101411.91;5076100;28;20024;-83
2023/08/15 04:53:56;;;;;;;20.75;4.80;;;;;;;16.25;100.00;101419.66;5076285;28;20085;-83
2023/08/15 04:56:22;;;;;;;16.60;4.90;;;;;;;16.28;100.00;101416.63;5076133;28;20453;-81
2023/08/15 04:58:48;;;;;;;20.20;4.50;;;;;;;16.31;100.00;101422.50;5092416;28;20031;-81
2023/08/15 05:01:13;;;;;;;17.55;4.65;;;;;;;16.36;100.00;101424.69;5091983;28;20114;-82
2023/08/15 05:03:39;;;;;;;19.15;4.53;;;;;;;16.43;100.00;101430.28;5091794;28;20032;-83
2023/08/15 05:06:04;;;;;;;21.85;4.65;;;;;;;16.53;100.00;101426.44;5091711;28;20032;-83
2023/08/15 05:08:30;;;;;;;19.85;4.32;;;;;;;16.66;100.00;101435.84;5091981;28;20456;-83
2023/08/15 05:10:55;;;;;;;16.05;4.22;;;;;;;16.77;100.00;101434.72;5091694;28;20169;-82
2023/08/15 05:13:21;;;;;;;13.40;3.92;;;;;;;16.81;100.00;101444.97;5091976;28;20063;-83
2023/08/15 05:15:46;;;;;;;15.55;4.03;;;;;;;16.86;100.00;101455.22;5092100;28;20043;-83
2023/08/15 05:18:13;;;;;;;11.55;4.15;;;;;;;16.89;100.00;101441.50;5091709;28;20452;-83
2023/08/15 05:20:38;;;;;;;15.80;3.97;;;;;;;16.91;100.00;101450.22;5092469;28;20476;-83
2023/08/15 05:23:04;;;;;;;15.70;4.63;;;;;;;16.95;100.00;101451.56;5073650;28;20056;-83
2023/08/15 05:25:29;;;;;;;17.00;3.75;;;;;;;16.98;100.00;101455.78;5091846;28;20031;-81
2023/08/15 05:27:56;;;;;;;16.35;4.50;;;;;;;17.05;100.00;101451.44;5091253;28;20039;-79
2023/08/15 05:30:21;;;;;;;15.63;4.68;;;;;;;17.11;100.00;101448.06;5091630;28;20028;-78
2023/08/15 05:32:46;;;;;;;16.25;3.72;;;;;;;17.13;100.00;101453.28;5091763;28;20036;-78
2023/08/15 05:35:12;;;;;;;16.75;3.83;;;;;;;17.15;100.00;101459.31;5091495;28;20111;-77
2023/08/15 05:37:37;;;;;;;16.38;4.10;;;;;;;17.15;100.00;101459.31;5077547;28;20116;-78
2023/08/15 05:40:04;;;;;;;16.17;4.05;;;;;;;17.14;100.00;101466.56;5076889;28;20028;-78
2023/08/15 05:42:29;;;;;;;13.02;3.35;;;;;;;17.16;100.00;101469.91;5095064;28;20123;-78
2023/08/15 05:44:55;;;;;;;16.45;4.07;;;;;;;17.20;100.00;101468.56;5076732;28;20506;-77
2023/08/15 05:47:20;;;;;;;16.33;3.47;;;;;;;17.24;100.00;101471.75;5094138;28;20187;-76
2023/08/15 05:49:46;;;;;;;17.75;3.55;;;;;;;17.30;100.00;101472.94;5094724;28;20067;-76
2023/08/15 05:52:11;;;;;;;11.82;3.50;;;;;;;17.32;100.00;101471.75;5094748;28;20035;-76
2023/08/15 05:54:37;;;;;;;19.13;3.83;;;;;;;17.35;100.00;101467.91;5094354;28;20115;-77
2023/08/15 05:57:02;;;;;;;17.25;4.03;;;;;;;17.43;100.00;101467.88;5094757;28;20476;-76
2023/08/15 05:59:28;;;;;;;10.80;3.35;;;;;;;17.49;100.00;101472.59;5094745;28;20028;-76
2023/08/15 06:01:53;;;;;;;17.55;4.00;;;;;;;17.50;100.00;101468.06;5094537;28;20047;-76
2023/08/15 06:04:19;;;;;;;11.75;3.40;;;;;;;17.53;100.00;101476.63;5094903;28;20109;-75
2023/08/15 06:06:44;;;;;;;14.05;4.22;;;;;;;17.60;100.00;101472.25;5094264;28;20196;-75
2023/08/15 06:09:09;;;;;;;18.92;3.63;;;;;;;17.69;100.00;101477.59;5094627;28;20039;-76
2023/08/15 06:11:35;;;;;;;17.27;4.03;;;;;;;17.88;100.00;101496.06;5094977;28;20447;-76
2023/08/15 06:14:00;;;;;;;12.73;3.70;;;;;;;18.04;100.00;101494.41;5096319;28;20032;-77
2023/08/15 06:16:26;;;;;;;14.52;3.35;;;;;;;18.18;100.00;101501.75;5095722;28;20091;-77
2023/08/15 06:18:52;;;;;;;17.67;3.78;;;;;;;18.37;100.00;101503.22;5097532;28;20117;-76
2023/08/15 06:21:17;;;;;;;15.15;4.07;;;;;;;18.49;100.00;101504.50;5094810;28;20421;-77
2023/08/15 06:23:42;;;;;;;19.58;4.70;;;;;;;18.50;100.00;101514.28;5094884;28;20028;-76
2023/08/15 06:26:08;;;;;;;12.68;3.67;;;;;;;18.53;100.00;101528.44;5094769;28;20109;-79
2023/08/15 06:28:33;;;;;;;12.95;3.70;;;;;;;18.51;100.00;101528.56;5094202;28;20037;-80
2023/08/15 06:30:59;;;;;;;11.98;3.80;;;;;;;18.53;100.00;101529.25;5094236;28;20127;-77
2023/08/15 06:33:24;;;;;;;9.75;3.28;;;;;;;18.59;100.00;101531.25;5094722;28;20044;-78
2023/08/15 06:35:49;;;;;;;12.00;4.15;;;;;;;18.58;100.00;101545.72;5094291;28;20387;-77
2023/08/15 06:38:15;;;;;;;9.93;3.20;;;;;;;18.54;100.00;101544.41;5093781;28;20488;-76
2023/08/15 06:40:40;;;;;;;15.85;3.83;;;;;;;18.56;100.00;101549.63;5094298;28;20384;-75
2023/08/15 06:43:05;;;;;;;12.30;3.40;;;;;;;18.58;100.00;101543.03;5093919;28;20036;-76
2023/08/15 06:45:31;;;;;;;16.60;3.80;;;;;;;18.65;100.00;101549.41;5075706;28;20040;-76
2023/08/15 06:47:56;;;;;;;10.07;3.60;;;;;;;18.72;100.00;101554.94;5093114;28;20032;-76
2023/08/15 06:50:22;;;;;;;12.07;3.80;;;;;;;18.69;100.00;101555.31;5093714;28;20078;-76
2023/08/15 06:52:47;;;;;;;15.25;3.20;;;;;;;18.67;100.00;101551.94;5094054;28;20039;-77
2023/08/15 06:55:12;;;;;;;12.75;3.45;;;;;;;18.60;100.00;101548.25;5093833;28;20035;-76
2023/08/15 06:57:38;;;;;;;13.50;3.30;;;;;;;18.58;100.00;101556.50;5075596;28;20043;-77
2023/08/15 07:00:09;;;;;;;12.23;2.92;;;;;;;18.58;100.00;101555.66;5093699;28;20039;-76
2023/08/15 07:02:35;;;;;;;9.90;2.80;;;;;;;18.62;100.00;101557.00;5094305;28;20043;-76
2023/08/15 07:05:00;;;;;;;9.55;3.25;;;;;;;18.73;100.00;101561.16;5093586;28;20039;-76
2023/08/15 07:07:26;;;;;;;15.70;3.20;;;;;;;18.78;100.00;101558.78;5093143;28;20612;-76
2023/08/15 07:09:51;;;;;;;12.93;2.92;;;;;;;18.80;100.00;101554.06;5093469;28;20489;-76
2023/08/15 07:12:18;;;;;;;12.32;2.90;;;;;;;18.81;100.00;101556.59;5093598;28;20425;-76
2023/08/15 07:14:45;;;;;;;8.43;3.17;;;;;;;18.96;100.00;101551.31;5094445;28;20036;-80
2023/08/15 07:17:11;;;;;;;11.77;2.63;;;;;;;19.26;100.00;101553.31;5077110;28;20042;-82
2023/08/15 07:19:36;;;;;;;8.60;2.65;;;;;;;19.56;100.00;101557.81;5095644;28;20074;-84
2023/08/15 07:22:02;;;;;;;8.65;2.90;;;;;;;19.92;100.00;101564.44;5094773;28;20040;-82
2023/08/15 07:24:27;;;;;;;14.40;3.17;;;;;;;20.19;100.00;101557.59;5076756;28;20024;-83
2023/08/15 07:26:52;;;;;;;10.25;2.80;;;;;;;20.05;100.00;101555.72;5094195;28;20528;-83
2023/08/15 07:29:18;;;;;;;8.82;2.42;;;;;;;20.11;100.00;101562.22;5094261;28;20053;-84
2023/08/15 07:31:43;;;;;;;11.73;3.42;;;;;;;19.99;100.00;101567.25;5094158;28;20035;-82
2023/08/15 07:34:09;;;;;;;6.95;3.05;;;;;;;19.82;100.00;101577.38;5075890;28;20074;-83
2023/08/15 07:36:34;;;;;;;12.27;3.10;;;;;;;19.76;100.00;101572.66;5094911;28;20035;-84
2023/08/15 07:39:00;;;;;;;6.72;2.90;;;;;;;19.81;100.00;101576.53;5094422;28;20024;-84
2023/08/15 07:41:25;;;;;;;15.82;3.58;;;;;;;19.83;100.00;101577.19;5093818;28;20032;-86
2023/08/15 07:43:50;;;;;;;11.00;3.42;;;;;;;19.75;100.00;101579.94;5094086;28;20035;-85
2023/08/15 07:46:16;;;;;;;13.02;3.28;;;;;;;19.69;100.00;101575.25;5093540;28;20039;-84
2023/08/15 07:48:42;;;;;;;13.50;3.80;;;;;;;19.56;100.00;101576.69;5093999;28;20474;-85
2023/08/15 07:51:08;;;;;;;12.88;3.42;;;;;;;19.52;100.00;101577.25;5093788;28;20028;-79
2023/08/15 07:53:33;;;;;;;11.77;4.00;;;;;;;19.49;100.00;101575.72;5093679;28;20495;-83
2023/08/15 07:55:59;;;;;;;12.50;3.67;;;;;;;19.49;100.00;101585.69;5094539;28;20039;-75
2023/08/15 07:58:24;;;;;;;11.68;3.80;;;;;;;19.46;100.00;101586.91;5093284;28;20089;-76
2023/08/15 08:00:50;;;;;;;12.20;4.18;;;;;;;19.48;100.00;101597.50;5094222;28;20123;-78
2023/08/15 08:03:16;;;;;;;12.70;4.15;;;;;;;19.52;100.00;101596.97;5075621;28;20055;-78
2023/08/15 08:05:42;;;;;;;17.48;4.53;;;;;;;19.52;100.00;101604.22;5093542;28;20036;-80
2023/08/15 08:08:08;;;;;;;11.05;4.22;;;;;;;19.45;100.00;101608.66;5093599;28;20039;-76
2023/08/15 08:10:33;;;;;;;13.73;3.85;;;;;;;19.44;100.00;101604.31;5092830;28;20373;-77
2023/08/15 08:12:59;;;;;;;13.57;4.70;;;;;;;19.42;100.00;101615.25;5093156;28;20050;-77
2023/08/15 08:15:25;;;;;;;18.50;4.70;;;;;;;19.40;100.00;101620.00;5092952;28;20032;-79
2023/08/15 08:17:51;;;;;;;15.45;4.97;;;;;;;19.28;100.00;101618.72;5093550;28;20048;-77
2023/08/15 08:20:18;;;;;;;12.02;4.80;;;;;;;19.18;100.00;101614.41;5093071;28;20104;-78
2023/08/15 08:22:43;;;;;;;10.18;4.53;;;;;;;19.16;100.00;101620.97;5093121;28;20024;-78
2023/08/15 08:25:16;;;;;;;11.23;4.63;;;;;;;19.14;100.00;101623.84;5093291;28;20489;-78
2023/08/15 08:27:43;;;;;;;15.57;4.18;;;;;;;18.82;100.00;101627.50;5093654;28;20039;-79
2023/08/15 08:30:10;;;;;;;6.90;3.10;;;;;;;18.58;100.00;101642.75;5093142;28;20395;-79
2023/08/15 08:32:35;;;;;;;6.00;3.10;;;;;;;18.46;100.00;101634.19;5093132;28;20385;-80
2023/08/15 08:35:01;;;;;;;6.57;2.55;;;;;;;18.46;100.00;101641.44;5093405;28;20043;-79
2023/08/15 08:37:26;;;;;;;6.95;3.10;;;;;;;18.60;100.00;101639.88;5074952;28;20528;-78
2023/08/15 08:39:51;;;;;;;7.22;2.70;;;;;;;18.88;100.00;101639.47;5093273;28;20511;-78
2023/08/15 08:42:17;;;;;;;2.70;1.88;;;;;;;19.22;100.00;101636.47;5075944;28;20100;-78
2023/08/15 08:44:46;;;;;;;5.68;2.00;;;;;;;19.63;100.00;101638.91;5093447;28;20062;-80
2023/08/15 08:47:12;;;;;;;4.50;2.00;;;;;;;19.87;100.00;101642.44;5093309;28;20392;-80
2023/08/15 08:49:38;;;;;;;3.30;1.63;;;;;;;20.02;100.00;101639.78;5093106;28;20456;-78
2023/08/15 08:52:04;;;;;;;6.07;1.92;;;;;;;20.11;100.00;101638.72;5074816;28;20028;-79
2023/08/15 08:54:30;;;;;;;4.20;1.40;;;;;;;20.01;100.00;101647.06;5074875;28;20344;-77
2023/08/15 08:56:58;;;;;;;2.92;1.60;;;;;;;20.01;100.00;101643.53;5092921;28;20032;-76
2023/08/15 08:59:26;;;;;;;3.65;1.40;;;;;;;19.94;100.00;101651.50;5092759;28;20108;-78
2023/08/15 09:01:52;;;;;;;4.25;1.50;;;;;;;19.83;100.00;101652.78;5093037;28;20111;-80
2023/08/15 09:04:20;;;;;;;3.13;1.70;;;;;;;19.86;100.00;101665.09;5092765;28;20087;-78
2023/08/15 09:06:46;;;;;;;3.33;1.33;;;;;;;19.63;100.00;101659.66;5092330;28;20101;-79
2023/08/15 09:09:11;;;;;;;3.58;1.60;;;;;;;19.50;100.00;101655.69;5073977;28;20066;-85
2023/08/15 09:11:37;;;;;;;3.25;1.30;;;;;;;19.52;100.00;101661.72;5094631;28;20511;-81
2023/08/15 09:14:04;;;;;;;2.60;1.60;;;;;;;19.55;100.00;101657.84;5078421;28;20415;-85
2023/08/15 09:16:30;;;;;;;3.58;1.50;;;;;;;19.77;100.00;101658.06;5097207;28;20059;-85
2023/08/15 09:18:55;;;;;;;6.22;1.88;;;;;;;19.95;100.00;101658.59;5096965;28;20052;-81
2023/08/15 09:21:23;;;;;;;1.42;1.08;;;;;;;19.93;100.00;101660.66;5097445;28;20134;-83
2023/08/15 09:23:51;;;;;;;2.22;1.13;;;;;;;20.12;100.00;101662.00;5098041;28;20065;-83
2023/08/15 09:26:16;;;;;;;1.63;1.20;;;;;;;20.31;100.00;101671.47;5096168;28;20020;-80
2023/08/15 09:28:43;;;;;;;6.43;1.60;;;;;;;20.43;100.00;101655.63;5096582;28;20080;-82
2023/08/15 09:31:10;;;;;;;3.08;1.40;;;;;;;20.49;100.00;101656.75;5077832;28;20431;-82
2023/08/15 09:33:39;;;;;;;3.20;1.45;;;;;;;20.54;100.00;101659.75;5096157;28;20024;-82
2023/08/15 09:36:06;;;;;;;3.60;1.48;;;;;;;20.42;100.00;101657.50;5096223;28;20047;-81
2023/08/15 09:38:32;;;;;;;4.03;2.13;;;;;;;20.41;100.00;101668.50;5096274;28;20239;-81
2023/08/15 09:40:59;;;;;;;5.22;1.95;;;;;;;20.56;100.00;101668.53;5096097;28;20028;-82
2023/08/15 09:43:25;;;;;;;7.65;1.80;;;;;;;20.48;100.00;101677.56;5095760;28;20032;-80
2023/08/15 09:45:51;;;;;;;4.80;1.92;;;;;;;20.53;100.00;101674.31;5096267;28;20039;-83
2023/08/15 09:48:16;;;;;;;6.82;1.75;;;;;;;20.48;100.00;101664.03;5095856;28;20065;-82
2023/08/15 09:50:44;;;;;;;6.70;1.83;;;;;;;20.48;100.00;101680.25;5096111;28;20040;-82
2023/08/15 09:53:09;;;;;;;3.90;1.80;;;;;;;20.43;100.00;101674.56;5095894;28;20039;-82
2023/08/15 09:55:36;;;;;;;4.45;1.77;;;;;;;20.39;100.00;101681.34;5077746;28;20085;-84
2023/08/15 09:58:03;;;;;;;4.32;1.90;;;;;;;20.41;100.00;101690.94;5078073;28;20035;-84
2023/08/15 10:00:29;;;;;;;4.20;1.70;;;;;;;20.38;100.00;101691.31;5096219;28;20040;-84
2023/08/15 10:03:09;;;;;;;5.15;1.70;;;;;;;20.18;100.00;101695.56;5095879;28;20035;-86
2023/08/15 10:05:36;;;;;;;4.65;1.45;;;;;;;20.07;100.00;101696.84;5077950;28;20091;-86
2023/08/15 10:08:02;;;;;;;3.63;1.30;;;;;;;20.11;100.00;101698.16;5095964;28;20059;-84
2023/08/15 10:10:30;;;;;;;3.88;1.42;;;;;;;20.26;100.00;101706.31;5077607;28;20036;-83
2023/08/15 10:12:57;;;;;;;2.50;1.30;;;;;;;20.39;100.00;101702.97;5077976;28;20350;-85
2023/08/15 10:15:24;;;;;;;8.50;1.40;;;;;;;20.57;100.00;101713.44;5078134;28;20425;-86
2023/08/15 10:17:50;;;;;;;3.95;2.10;;;;;;;20.77;100.00;101713.78;5097528;28;20477;-85
2023/08/15 10:20:18;;;;;;;5.60;1.75;;;;;;;21.20;100.00;101716.66;5095825;28;20063;-84
2023/08/15 10:22:44;;;;;;;5.68;1.63;;;;;;;21.62;100.00;101717.00;5094916;28;20028;-83
2023/08/15 10:25:27;;;;;;;5.85;1.40;;;;;;;21.89;100.00;101720.81;5096012;28;20062;-85
2023/08/15 10:27:55;;;;;;;4.35;1.38;;;;;;;21.77;100.00;101723.19;5095485;28;20032;-86
2023/08/15 10:30:30;;;;;;;4.45;1.60;;;;;;;21.78;100.00;101721.31;5095082;28;20031;-84
2023/08/15 10:33:17;;;;;;;6.80;1.83;;;;;;;21.95;100.00;101720.03;5096069;28;20032;-86
2023/08/15 10:35:42;;;;;;;6.05;1.55;;;;;;;22.51;100.00;101713.91;5095786;28;20161;-83
2023/08/15 10:38:15;;;;;;;3.95;1.50;;;;;;;23.00;100.00;101719.41;5095256;28;20482;-84
2023/08/15 10:40:43;;;;;;;4.75;1.70;;;;;;;22.78;100.00;101732.22;5096427;28;20329;-84
2023/08/15 10:43:11;;;;;;;3.42;1.50;;;;;;;22.15;100.00;101731.09;5095939;28;20028;-83
2023/08/15 10:45:42;;;;;;;5.78;1.85;;;;;;;21.71;100.00;101733.97;5097089;28;20423;-84
2023/08/15 10:48:08;;;;;;;;;;;;;;;21.73;100.00;101735.44;5096252;28;20030;-81
2023/08/15 10:50:34;;;;;;;9.40;2.20;;;;;;;22.02;100.00;101730.97;5096534;28;19920;-83
2023/08/15 10:53:04;;;;;;;4.25;1.70;;;;;;;23.03;100.00;101732.56;5095895;28;20040;-84
2023/08/15 10:55:33;;;;;;;5.90;1.70;;;;;;;23.80;100.00;101730.59;5095634;28;20032;-82
2023/08/15 10:58:03;;;;;;;5.43;1.50;;;;;;;24.18;100.00;101742.81;5095343;28;20438;-83
2023/08/15 11:00:30;;;;;;;6.43;1.77;;;;;;;24.77;100.00;101743.88;5095207;28;20032;-83
2023/08/15 11:02:57;;;;;;;5.32;1.60;;;;;;;25.40;100.00;101747.91;5094930;28;20036;-84
2023/08/15 11:05:22;;;;;;;3.75;1.70;;;;;;;26.05;100.00;101747.78;5094707;28;20028;-84
2023/08/15 11:07:47;;;;;;;7.20;1.50;;;;;;;26.26;100.00;101743.84;5094566;28;20035;-86